N24KM KFRG-CYHU
Flight info
| Callsign | N24KM |
|---|---|
| Flight time | 1h 2m |
| Altitude | 45000 |
| Route | GREKI DCT JUDDS DCT CAM DCT BEEHS DCT PLUMS DCT OWLHD DCT VOGIV DCT KEBGO DCT VOBOK |
| Aircraft | C25B/M-SDE2E3FGHRWXY/LB1 |
Departure
| Time | 2026-04-30 00:50 |
|---|---|
| Airport | Republic Airport (KFRG) |
Arrival
| Time | 2026-04-30 01:53 |
|---|---|
| Airport | Montréal / Saint-Hubert Metropolitan Airport (CYHU) |
| Time | Latitude | Longitude | Altitude | Speed | Heading |
|---|---|---|---|---|---|
| 2026-04-30 00:12 | 40.72243 | -73.41676 | 75 ft | 0 kts | 14° |
| 2026-04-30 00:21 | 40.72241 | -73.41677 | 63 ft | 2 kts | 14° |
| 2026-04-30 00:21 | 40.72216 | -73.41685 | 66 ft | 4 kts | 14° |
| 2026-04-30 00:21 | 40.72193 | -73.41695 | 66 ft | 4 kts | 49° |
| 2026-04-30 00:21 | 40.72189 | -73.41716 | 62 ft | 4 kts | 95° |
| 2026-04-30 00:22 | 40.72190 | -73.41733 | 66 ft | 0 kts | 95° |
| 2026-04-30 00:24 | 40.72189 | -73.41730 | 61 ft | 4 kts | 95° |
| 2026-04-30 00:24 | 40.72185 | -73.41670 | 66 ft | 8 kts | 92° |
| 2026-04-30 00:24 | 40.72185 | -73.41591 | 66 ft | 10 kts | 90° |
| 2026-04-30 00:24 | 40.72231 | -73.41536 | 66 ft | 12 kts | 358° |
| 2026-04-30 00:25 | 40.72324 | -73.41538 | 66 ft | 14 kts | 0° |
| 2026-04-30 00:25 | 40.72394 | -73.41539 | 66 ft | 16 kts | 359° |
| 2026-04-30 00:25 | 40.72553 | -73.41541 | 66 ft | 19 kts | 359° |
| 2026-04-30 00:25 | 40.72631 | -73.41542 | 66 ft | 14 kts | 359° |
| 2026-04-30 00:26 | 40.72768 | -73.41544 | 63 ft | 11 kts | 359° |
| 2026-04-30 00:26 | 40.72830 | -73.41546 | 67 ft | 10 kts | 358° |
| 2026-04-30 00:26 | 40.72903 | -73.41575 | 66 ft | 13 kts | 313° |
| 2026-04-30 00:26 | 40.72946 | -73.41640 | 63 ft | 15 kts | 311° |
| 2026-04-30 00:27 | 40.73021 | -73.41746 | 64 ft | 17 kts | 312° |
| 2026-04-30 00:27 | 40.73102 | -73.41864 | 66 ft | 16 kts | 313° |
| 2026-04-30 00:27 | 40.73169 | -73.41960 | 60 ft | 13 kts | 311° |
| 2026-04-30 00:27 | 40.73232 | -73.42053 | 61 ft | 14 kts | 313° |
| 2026-04-30 00:28 | 40.73304 | -73.42157 | 66 ft | 16 kts | 312° |
| 2026-04-30 00:28 | 40.73359 | -73.42237 | 66 ft | 9 kts | 313° |
| 2026-04-30 00:28 | 40.73398 | -73.42238 | 67 ft | 5 kts | 46° |
| 2026-04-30 00:28 | 40.73399 | -73.42237 | 67 ft | 0 kts | 46° |
| 2026-04-30 00:48 | 40.73431 | -73.42197 | 64 ft | 7 kts | 44° |
| 2026-04-30 00:49 | 40.73439 | -73.42139 | 68 ft | 7 kts | 129° |
| 2026-04-30 00:49 | 40.73436 | -73.42134 | 68 ft | 4 kts | 131° |
| 2026-04-30 00:49 | 40.73289 | -73.41921 | 66 ft | 64 kts | 132° |
| 2026-04-30 00:49 | 40.72865 | -73.41306 | 86 ft | 112 kts | 132° |
| 2026-04-30 00:50 | 40.72277 | -73.40468 | 338 ft | 127 kts | 135° |
| 2026-04-30 00:50 | 40.71578 | -73.39885 | 645 ft | 116 kts | 166° |
| 2026-04-30 00:50 | 40.70748 | -73.39974 | 888 ft | 129 kts | 196° |
| 2026-04-30 00:50 | 40.69970 | -73.40576 | 1260 ft | 130 kts | 214° |
| 2026-04-30 00:51 | 40.69263 | -73.41303 | 1621 ft | 128 kts | 212° |
| 2026-04-30 00:51 | 40.68527 | -73.42021 | 1857 ft | 137 kts | 214° |
| 2026-04-30 00:51 | 40.67737 | -73.42699 | 2210 ft | 130 kts | 194° |
| 2026-04-30 00:51 | 40.66889 | -73.42492 | 2708 ft | 134 kts | 141° |
| 2026-04-30 00:52 | 40.66447 | -73.41357 | 2974 ft | 160 kts | 103° |
| 2026-04-30 00:52 | 40.66791 | -73.39868 | 3063 ft | 187 kts | 52° |
| 2026-04-30 00:52 | 40.67948 | -73.38912 | 3078 ft | 207 kts | 27° |
| 2026-04-30 00:52 | 40.69292 | -73.38105 | 3139 ft | 216 kts | 25° |
| 2026-04-30 00:53 | 40.70696 | -73.37306 | 3120 ft | 225 kts | 24° |
| 2026-04-30 00:53 | 40.72167 | -73.36510 | 3050 ft | 231 kts | 24° |
| 2026-04-30 00:53 | 40.73636 | -73.35601 | 2999 ft | 233 kts | 28° |
| 2026-04-30 00:53 | 40.75100 | -73.34680 | 2993 ft | 233 kts | 27° |
| 2026-04-30 00:54 | 40.76558 | -73.33754 | 2993 ft | 232 kts | 27° |
| 2026-04-30 00:54 | 40.78016 | -73.32831 | 2993 ft | 232 kts | 27° |
| 2026-04-30 00:54 | 40.79473 | -73.31912 | 2991 ft | 232 kts | 27° |
| 2026-04-30 00:54 | 40.80933 | -73.31002 | 2992 ft | 233 kts | 27° |
| 2026-04-30 00:55 | 40.82402 | -73.30080 | 2989 ft | 234 kts | 27° |
| 2026-04-30 00:55 | 40.83875 | -73.29164 | 2990 ft | 234 kts | 27° |
| 2026-04-30 00:55 | 40.86819 | -73.27316 | 2993 ft | 234 kts | 26° |
| 2026-04-30 00:56 | 40.88379 | -73.26949 | 2968 ft | 235 kts | 352° |
| 2026-04-30 00:56 | 40.89811 | -73.27896 | 2968 ft | 233 kts | 314° |
| 2026-04-30 00:56 | 40.90700 | -73.29663 | 2972 ft | 231 kts | 298° |
| 2026-04-30 00:56 | 40.91680 | -73.31319 | 2977 ft | 232 kts | 324° |
| 2026-04-30 00:57 | 40.93225 | -73.31793 | 2964 ft | 234 kts | 8° |
| 2026-04-30 00:57 | 40.94802 | -73.31248 | 3686 ft | 235 kts | 15° |
| 2026-04-30 00:57 | 40.96420 | -73.30991 | 5181 ft | 233 kts | 1° |
| 2026-04-30 00:57 | 40.98072 | -73.31016 | 6312 ft | 242 kts | 357° |
| 2026-04-30 00:58 | 40.99772 | -73.31084 | 7400 ft | 246 kts | 357° |
| 2026-04-30 00:58 | 41.01494 | -73.31091 | 8536 ft | 249 kts | 358° |
| 2026-04-30 00:58 | 41.03243 | -73.31103 | 9667 ft | 253 kts | 357° |
| 2026-04-30 00:58 | 41.05017 | -73.31109 | 10696 ft | 257 kts | 357° |
| 2026-04-30 00:59 | 41.06829 | -73.31122 | 11670 ft | 264 kts | 357° |
| 2026-04-30 00:59 | 41.08667 | -73.31140 | 12630 ft | 271 kts | 358° |
| 2026-04-30 00:59 | 41.10599 | -73.31151 | 13633 ft | 277 kts | 358° |
| 2026-04-30 00:59 | 41.12522 | -73.31165 | 14527 ft | 282 kts | 358° |
| 2026-04-30 01:00 | 41.14488 | -73.31178 | 15513 ft | 283 kts | 357° |
| 2026-04-30 01:00 | 41.16465 | -73.31193 | 16490 ft | 285 kts | 357° |
| 2026-04-30 01:00 | 41.18510 | -73.31209 | 16976 ft | 309 kts | 356° |
| 2026-04-30 01:00 | 41.20670 | -73.31230 | 16984 ft | 308 kts | 357° |
| 2026-04-30 01:01 | 41.22791 | -73.31226 | 16982 ft | 302 kts | 356° |
| 2026-04-30 01:01 | 41.24881 | -73.31252 | 16984 ft | 298 kts | 356° |
| 2026-04-30 01:01 | 41.26944 | -73.31263 | 16980 ft | 295 kts | 356° |
| 2026-04-30 01:01 | 41.28989 | -73.31283 | 16978 ft | 292 kts | 356° |
| 2026-04-30 01:02 | 41.31015 | -73.31292 | 16978 ft | 290 kts | 356° |
| 2026-04-30 01:02 | 41.33028 | -73.31310 | 16974 ft | 288 kts | 356° |
| 2026-04-30 01:02 | 41.35003 | -73.31323 | 16971 ft | 287 kts | 356° |
| 2026-04-30 01:02 | 41.36995 | -73.31338 | 16965 ft | 286 kts | 356° |
| 2026-04-30 01:03 | 41.38981 | -73.31351 | 16972 ft | 285 kts | 356° |
| 2026-04-30 01:03 | 41.40963 | -73.31366 | 16968 ft | 284 kts | 356° |
| 2026-04-30 01:03 | 41.42951 | -73.31383 | 17032 ft | 294 kts | 356° |
| 2026-04-30 01:03 | 41.44955 | -73.31384 | 18597 ft | 285 kts | 357° |
| 2026-04-30 01:04 | 41.46942 | -73.30937 | 19763 ft | 297 kts | 13° |
| 2026-04-30 01:04 | 41.48868 | -73.29828 | 20891 ft | 308 kts | 27° |
| 2026-04-30 01:04 | 41.50572 | -73.28026 | 22086 ft | 317 kts | 40° |
| 2026-04-30 01:04 | 41.52152 | -73.25925 | 23172 ft | 325 kts | 40° |
| 2026-04-30 01:05 | 41.53765 | -73.23763 | 24115 ft | 331 kts | 41° |
| 2026-04-30 01:05 | 41.55410 | -73.21570 | 24990 ft | 337 kts | 40° |
| 2026-04-30 01:05 | 41.57070 | -73.19369 | 25834 ft | 344 kts | 40° |
| 2026-04-30 01:05 | 41.58779 | -73.17088 | 26653 ft | 350 kts | 40° |
| 2026-04-30 01:06 | 41.60574 | -73.14860 | 27440 ft | 353 kts | 32° |
| 2026-04-30 01:06 | 41.62675 | -73.13209 | 28235 ft | 350 kts | 18° |
| 2026-04-30 01:06 | 41.64958 | -73.12143 | 29007 ft | 346 kts | 5° |
| 2026-04-30 01:06 | 41.67326 | -73.11694 | 29777 ft | 342 kts | 353° |
| 2026-04-30 01:07 | 41.69686 | -73.11865 | 30452 ft | 338 kts | 343° |
| 2026-04-30 01:07 | 41.72036 | -73.12290 | 31040 ft | 344 kts | 343° |
| 2026-04-30 01:07 | 41.74426 | -73.12700 | 31615 ft | 350 kts | 343° |
| 2026-04-30 01:07 | 41.76863 | -73.13105 | 32207 ft | 355 kts | 344° |
| 2026-04-30 01:08 | 41.79324 | -73.13520 | 32862 ft | 357 kts | 343° |
| 2026-04-30 01:08 | 41.81799 | -73.13945 | 33452 ft | 361 kts | 343° |
| 2026-04-30 01:08 | 41.84306 | -73.14378 | 34011 ft | 365 kts | 343° |
| 2026-04-30 01:08 | 41.86807 | -73.14802 | 34486 ft | 369 kts | 343° |
| 2026-04-30 01:09 | 41.89367 | -73.15240 | 34973 ft | 372 kts | 343° |
| 2026-04-30 01:09 | 41.91949 | -73.15680 | 35440 ft | 376 kts | 343° |
| 2026-04-30 01:09 | 41.94552 | -73.16128 | 35885 ft | 379 kts | 343° |
| 2026-04-30 01:09 | 41.97181 | -73.16577 | 36322 ft | 382 kts | 343° |
| 2026-04-30 01:10 | 41.99830 | -73.17034 | 36781 ft | 385 kts | 344° |
| 2026-04-30 01:10 | 42.02496 | -73.17488 | 37196 ft | 388 kts | 344° |
| 2026-04-30 01:10 | 42.05186 | -73.17953 | 37585 ft | 391 kts | 344° |
| 2026-04-30 01:10 | 42.07898 | -73.18417 | 37968 ft | 394 kts | 344° |
| 2026-04-30 01:11 | 42.10633 | -73.18891 | 38327 ft | 398 kts | 344° |
| 2026-04-30 01:11 | 42.13349 | -73.19356 | 38659 ft | 401 kts | 344° |
| 2026-04-30 01:11 | 42.16123 | -73.19837 | 38941 ft | 403 kts | 345° |
| 2026-04-30 01:11 | 42.18916 | -73.20315 | 39209 ft | 406 kts | 345° |
| 2026-04-30 01:12 | 42.21729 | -73.20804 | 39480 ft | 408 kts | 345° |
| 2026-04-30 01:12 | 42.24554 | -73.21291 | 39757 ft | 410 kts | 345° |
| 2026-04-30 01:12 | 42.27392 | -73.21783 | 39984 ft | 413 kts | 345° |
| 2026-04-30 01:12 | 42.30254 | -73.22279 | 40203 ft | 416 kts | 345° |
| 2026-04-30 01:13 | 42.33130 | -73.22778 | 40462 ft | 418 kts | 346° |
| 2026-04-30 01:13 | 42.36023 | -73.23279 | 40709 ft | 421 kts | 346° |
| 2026-04-30 01:13 | 42.38938 | -73.23787 | 40917 ft | 424 kts | 346° |
| 2026-04-30 01:13 | 42.41852 | -73.24296 | 40937 ft | 431 kts | 346° |
| 2026-04-30 01:14 | 42.47887 | -73.25344 | 40934 ft | 437 kts | 346° |
| 2026-04-30 01:14 | 42.50841 | -73.25841 | 40931 ft | 420 kts | 346° |
| 2026-04-30 01:14 | 42.53704 | -73.26347 | 40922 ft | 411 kts | 345° |
| 2026-04-30 01:15 | 42.59290 | -73.27337 | 40904 ft | 399 kts | 346° |
| 2026-04-30 01:15 | 42.64742 | -73.28285 | 40907 ft | 392 kts | 346° |
| 2026-04-30 01:16 | 42.70201 | -73.29254 | 40908 ft | 400 kts | 346° |
| 2026-04-30 01:16 | 42.75743 | -73.30220 | 40930 ft | 408 kts | 346° |
| 2026-04-30 01:17 | 42.81409 | -73.31220 | 40920 ft | 414 kts | 346° |
| 2026-04-30 01:17 | 42.87149 | -73.32230 | 40921 ft | 418 kts | 346° |
| 2026-04-30 01:18 | 42.92933 | -73.33253 | 40920 ft | 420 kts | 346° |
| 2026-04-30 01:18 | 42.98750 | -73.34241 | 40912 ft | 424 kts | 349° |
| 2026-04-30 01:19 | 43.04695 | -73.33857 | 40914 ft | 433 kts | 358° |
| 2026-04-30 01:19 | 43.10704 | -73.33235 | 40911 ft | 433 kts | 358° |
| 2026-04-30 01:20 | 43.16726 | -73.32607 | 40895 ft | 435 kts | 358° |
| 2026-04-30 01:20 | 43.22767 | -73.31976 | 40900 ft | 436 kts | 359° |
| 2026-04-30 01:21 | 43.28810 | -73.31342 | 40893 ft | 434 kts | 359° |
| 2026-04-30 01:21 | 43.34790 | -73.30719 | 40884 ft | 428 kts | 359° |
| 2026-04-30 01:22 | 43.40702 | -73.30095 | 40882 ft | 424 kts | 359° |
| 2026-04-30 01:22 | 43.46557 | -73.29481 | 40869 ft | 420 kts | 359° |
| 2026-04-30 01:23 | 43.52319 | -73.28874 | 40871 ft | 417 kts | 359° |
| 2026-04-30 01:23 | 43.58080 | -73.28268 | 40876 ft | 414 kts | 359° |
| 2026-04-30 01:24 | 43.63815 | -73.27661 | 40863 ft | 413 kts | 359° |
| 2026-04-30 01:24 | 43.69529 | -73.27056 | 40866 ft | 411 kts | 359° |
| 2026-04-30 01:25 | 43.75235 | -73.26452 | 40865 ft | 411 kts | 359° |
| 2026-04-30 01:25 | 43.80927 | -73.25841 | 40868 ft | 410 kts | 359° |
| 2026-04-30 01:26 | 43.86602 | -73.25243 | 40878 ft | 409 kts | 359° |
| 2026-04-30 01:26 | 43.92277 | -73.24635 | 40874 ft | 408 kts | 359° |
| 2026-04-30 01:27 | 43.97773 | -73.24045 | 40870 ft | 390 kts | 359° |
| 2026-04-30 01:27 | 44.03076 | -73.23576 | 40851 ft | 370 kts | 352° |
| 2026-04-30 01:28 | 44.08067 | -73.24283 | 40853 ft | 354 kts | 348° |
| 2026-04-30 01:28 | 44.12894 | -73.24978 | 40849 ft | 344 kts | 348° |
| 2026-04-30 01:29 | 44.17595 | -73.25694 | 40852 ft | 338 kts | 348° |
| 2026-04-30 01:29 | 44.22211 | -73.26363 | 40847 ft | 334 kts | 348° |
| 2026-04-30 01:30 | 44.26806 | -73.27040 | 40840 ft | 330 kts | 348° |
| 2026-04-30 01:30 | 44.31348 | -73.27735 | 40841 ft | 328 kts | 348° |
| 2026-04-30 01:31 | 44.35880 | -73.28396 | 40646 ft | 332 kts | 348° |
| 2026-04-30 01:31 | 44.38232 | -73.28757 | 40152 ft | 347 kts | 348° |
| 2026-04-30 01:31 | 44.40663 | -73.29118 | 39681 ft | 356 kts | 348° |
| 2026-04-30 01:32 | 44.43147 | -73.29482 | 39246 ft | 362 kts | 348° |
| 2026-04-30 01:32 | 44.45643 | -73.29852 | 38803 ft | 368 kts | 348° |
| 2026-04-30 01:32 | 44.48202 | -73.30240 | 38329 ft | 373 kts | 348° |
| 2026-04-30 01:32 | 44.50797 | -73.30628 | 37767 ft | 377 kts | 348° |
| 2026-04-30 01:33 | 44.53416 | -73.31012 | 37218 ft | 380 kts | 348° |
| 2026-04-30 01:33 | 44.56055 | -73.31413 | 36678 ft | 383 kts | 348° |
| 2026-04-30 01:33 | 44.58717 | -73.31803 | 36152 ft | 385 kts | 348° |
| 2026-04-30 01:33 | 44.61386 | -73.32211 | 35637 ft | 387 kts | 347° |
| 2026-04-30 01:34 | 44.64071 | -73.32619 | 35129 ft | 389 kts | 347° |
| 2026-04-30 01:34 | 44.66768 | -73.33020 | 34634 ft | 390 kts | 347° |
| 2026-04-30 01:34 | 44.69471 | -73.33421 | 34144 ft | 391 kts | 347° |
| 2026-04-30 01:34 | 44.72190 | -73.33766 | 33576 ft | 394 kts | 348° |
| 2026-04-30 01:35 | 44.74943 | -73.34069 | 32720 ft | 398 kts | 348° |
| 2026-04-30 01:35 | 44.77706 | -73.34401 | 31723 ft | 400 kts | 348° |
| 2026-04-30 01:35 | 44.80447 | -73.34723 | 30738 ft | 402 kts | 349° |
| 2026-04-30 01:35 | 44.83220 | -73.35033 | 29762 ft | 399 kts | 350° |
| 2026-04-30 01:36 | 44.85978 | -73.35337 | 28650 ft | 396 kts | 351° |
| 2026-04-30 01:36 | 44.88712 | -73.35644 | 27580 ft | 392 kts | 350° |
| 2026-04-30 01:36 | 44.91417 | -73.35960 | 26557 ft | 389 kts | 351° |
| 2026-04-30 01:36 | 44.94105 | -73.36258 | 25562 ft | 385 kts | 351° |
| 2026-04-30 01:37 | 44.96759 | -73.36565 | 24626 ft | 382 kts | 352° |
| 2026-04-30 01:37 | 44.99336 | -73.36779 | 23675 ft | 354 kts | 357° |
| 2026-04-30 01:37 | 45.01806 | -73.36363 | 22626 ft | 360 kts | 8° |
| 2026-04-30 01:37 | 45.04181 | -73.35371 | 21586 ft | 363 kts | 21° |
| 2026-04-30 01:38 | 45.06470 | -73.33871 | 20568 ft | 363 kts | 25° |
| 2026-04-30 01:38 | 45.08763 | -73.32378 | 19584 ft | 361 kts | 25° |
| 2026-04-30 01:38 | 45.11031 | -73.30871 | 18640 ft | 360 kts | 26° |
| 2026-04-30 01:38 | 45.13290 | -73.29369 | 17659 ft | 357 kts | 25° |
| 2026-04-30 01:39 | 45.15467 | -73.27926 | 16599 ft | 328 kts | 26° |
| 2026-04-30 01:39 | 45.17443 | -73.26617 | 15571 ft | 302 kts | 25° |
| 2026-04-30 01:39 | 45.19291 | -73.25395 | 14571 ft | 285 kts | 26° |
| 2026-04-30 01:39 | 45.21049 | -73.24217 | 13606 ft | 275 kts | 25° |
| 2026-04-30 01:40 | 45.22758 | -73.23085 | 12545 ft | 267 kts | 25° |
| 2026-04-30 01:40 | 45.24399 | -73.21991 | 11537 ft | 261 kts | 26° |
| 2026-04-30 01:40 | 45.26021 | -73.20877 | 10557 ft | 260 kts | 26° |
| 2026-04-30 01:40 | 45.27715 | -73.19721 | 9642 ft | 279 kts | 26° |
| 2026-04-30 01:41 | 45.29478 | -73.18505 | 8850 ft | 283 kts | 26° |
| 2026-04-30 01:41 | 45.31353 | -73.17652 | 8062 ft | 286 kts | 9° |
| 2026-04-30 01:41 | 45.33302 | -73.17290 | 7319 ft | 285 kts | 7° |
| 2026-04-30 01:41 | 45.35269 | -73.16951 | 6579 ft | 286 kts | 7° |
| 2026-04-30 01:42 | 45.37259 | -73.16668 | 5875 ft | 286 kts | 6° |
| 2026-04-30 01:42 | 45.39205 | -73.16398 | 5385 ft | 277 kts | 6° |
| 2026-04-30 01:42 | 45.41093 | -73.16201 | 4902 ft | 267 kts | 359° |
| 2026-04-30 01:42 | 45.42791 | -73.17044 | 4373 ft | 258 kts | 319° |
| 2026-04-30 01:43 | 45.43739 | -73.19041 | 3852 ft | 243 kts | 280° |
| 2026-04-30 01:43 | 45.43613 | -73.21209 | 3794 ft | 208 kts | 242° |
| 2026-04-30 01:43 | 45.43022 | -73.23046 | 3795 ft | 200 kts | 233° |
| 2026-04-30 01:43 | 45.42180 | -73.24563 | 3795 ft | 195 kts | 230° |
| 2026-04-30 01:44 | 45.41656 | -73.26382 | 3796 ft | 201 kts | 245° |
| 2026-04-30 01:44 | 45.41149 | -73.28218 | 3799 ft | 198 kts | 239° |
| 2026-04-30 01:44 | 45.40595 | -73.29986 | 3918 ft | 193 kts | 240° |
| 2026-04-30 01:44 | 45.40057 | -73.31725 | 3997 ft | 192 kts | 238° |
| 2026-04-30 01:45 | 45.39507 | -73.33472 | 3995 ft | 196 kts | 239° |
| 2026-04-30 01:45 | 45.38963 | -73.35240 | 3993 ft | 199 kts | 239° |
| 2026-04-30 01:45 | 45.38401 | -73.37041 | 3997 ft | 200 kts | 240° |
| 2026-04-30 01:45 | 45.37841 | -73.38862 | 4000 ft | 202 kts | 239° |
| 2026-04-30 01:46 | 45.37265 | -73.40695 | 4005 ft | 204 kts | 240° |
| 2026-04-30 01:46 | 45.36696 | -73.42539 | 3999 ft | 204 kts | 239° |
| 2026-04-30 01:46 | 45.36116 | -73.44388 | 4008 ft | 205 kts | 240° |
| 2026-04-30 01:46 | 45.35543 | -73.46250 | 4008 ft | 206 kts | 239° |
| 2026-04-30 01:47 | 45.34979 | -73.48121 | 3999 ft | 207 kts | 244° |
| 2026-04-30 01:47 | 45.34800 | -73.50193 | 3999 ft | 216 kts | 264° |
| 2026-04-30 01:47 | 45.35047 | -73.52324 | 3991 ft | 223 kts | 283° |
| 2026-04-30 01:47 | 45.35762 | -73.54260 | 3928 ft | 225 kts | 300° |
| 2026-04-30 01:48 | 45.36884 | -73.55809 | 3688 ft | 226 kts | 320° |
| 2026-04-30 01:48 | 45.38300 | -73.56773 | 3405 ft | 228 kts | 345° |
| 2026-04-30 01:48 | 45.39854 | -73.57056 | 3111 ft | 224 kts | 6° |
| 2026-04-30 01:48 | 45.41348 | -73.56624 | 2854 ft | 215 kts | 24° |
| 2026-04-30 01:49 | 45.42621 | -73.55621 | 2584 ft | 205 kts | 43° |
| 2026-04-30 01:49 | 45.43573 | -73.54309 | 2324 ft | 177 kts | 55° |
| 2026-04-30 01:49 | 45.44372 | -73.53094 | 2083 ft | 161 kts | 52° |
| 2026-04-30 01:49 | 45.45112 | -73.51977 | 1869 ft | 150 kts | 53° |
| 2026-04-30 01:50 | 45.45802 | -73.50928 | 1680 ft | 144 kts | 51° |
| 2026-04-30 01:50 | 45.46480 | -73.49902 | 1475 ft | 140 kts | 52° |
| 2026-04-30 01:50 | 45.47125 | -73.48879 | 1264 ft | 139 kts | 52° |
| 2026-04-30 01:50 | 45.47735 | -73.47962 | 1125 ft | 118 kts | 49° |
| 2026-04-30 01:51 | 45.48277 | -73.47145 | 962 ft | 109 kts | 53° |
| 2026-04-30 01:51 | 45.48782 | -73.46366 | 810 ft | 106 kts | 47° |
| 2026-04-30 01:51 | 45.49290 | -73.45598 | 667 ft | 107 kts | 46° |
| 2026-04-30 01:51 | 45.49798 | -73.44822 | 529 ft | 107 kts | 46° |
| 2026-04-30 01:52 | 45.50328 | -73.44059 | 398 ft | 111 kts | 44° |
| 2026-04-30 01:52 | 45.50857 | -73.43257 | 236 ft | 113 kts | 46° |
| 2026-04-30 01:52 | 45.51385 | -73.42449 | 104 ft | 108 kts | 46° |
| 2026-04-30 01:52 | 45.51838 | -73.41753 | 91 ft | 83 kts | 47° |
| 2026-04-30 01:53 | 45.52188 | -73.41226 | 87 ft | 65 kts | 47° |
| 2026-04-30 01:53 | 45.52446 | -73.40828 | 91 ft | 39 kts | 47° |
| 2026-04-30 01:53 | 45.52607 | -73.40740 | 92 ft | 22 kts | 10° |
| 2026-04-30 01:53 | 45.52726 | -73.40713 | 88 ft | 14 kts | 1° |
| 2026-04-30 01:54 | 45.52815 | -73.40737 | 91 ft | 7 kts | 331° |
| 2026-04-30 01:54 | 45.52829 | -73.40749 | 89 ft | 0 kts | 330° |